sensor_id;sensor_type;location;lat;lon;timestamp;P1;durP1;ratioP1;P2;durP2;ratioP2
54899;SDS011;40801;41.924;25.562;2023-05-13T00:01:05;6.15;;;5.55;;
54899;SDS011;40801;41.924;25.562;2023-05-13T00:03:31;6.13;;;5.63;;
54899;SDS011;40801;41.924;25.562;2023-05-13T00:05:57;6.32;;;5.72;;
54899;SDS011;40801;41.924;25.562;2023-05-13T00:08:22;8.30;;;6.13;;
54899;SDS011;40801;41.924;25.562;2023-05-13T00:10:48;6.75;;;6.25;;
54899;SDS011;40801;41.924;25.562;2023-05-13T00:13:13;6.18;;;5.68;;
54899;SDS011;40801;41.924;25.562;2023-05-13T00:15:39;5.93;;;5.43;;
54899;SDS011;40801;41.924;25.562;2023-05-13T00:18:04;7.15;;;5.63;;
54899;SDS011;40801;41.924;25.562;2023-05-13T00:20:30;6.97;;;6.43;;
54899;SDS011;40801;41.924;25.562;2023-05-13T00:22:55;6.20;;;5.70;;
54899;SDS011;40801;41.924;25.562;2023-05-13T00:25:21;5.78;;;5.38;;
54899;SDS011;40801;41.924;25.562;2023-05-13T00:27:46;7.07;;;6.40;;
54899;SDS011;40801;41.924;25.562;2023-05-13T00:30:12;5.93;;;5.50;;
54899;SDS011;40801;41.924;25.562;2023-05-13T00:32:37;7.82;;;5.57;;
54899;SDS011;40801;41.924;25.562;2023-05-13T00:35:02;5.95;;;5.30;;
54899;SDS011;40801;41.924;25.562;2023-05-13T00:37:28;5.20;;;4.75;;
54899;SDS011;40801;41.924;25.562;2023-05-13T00:39:53;5.80;;;5.30;;
54899;SDS011;40801;41.924;25.562;2023-05-13T00:42:19;5.03;;;4.72;;
54899;SDS011;40801;41.924;25.562;2023-05-13T00:44:44;6.03;;;5.53;;
54899;SDS011;40801;41.924;25.562;2023-05-13T00:47:10;5.70;;;5.30;;
54899;SDS011;40801;41.924;25.562;2023-05-13T00:49:36;5.90;;;5.40;;
54899;SDS011;40801;41.924;25.562;2023-05-13T00:52:02;6.35;;;5.80;;
54899;SDS011;40801;41.924;25.562;2023-05-13T00:54:28;6.30;;;5.80;;
54899;SDS011;40801;41.924;25.562;2023-05-13T00:56:54;5.57;;;5.07;;
54899;SDS011;40801;41.924;25.562;2023-05-13T00:59:24;5.25;;;4.85;;
54899;SDS011;40801;41.924;25.562;2023-05-13T01:04:52;5.35;;;4.95;;
54899;SDS011;40801;41.924;25.562;2023-05-13T01:07:41;5.15;;;4.80;;
54899;SDS011;40801;41.924;25.562;2023-05-13T01:12:55;5.72;;;5.22;;
54899;SDS011;40801;41.924;25.562;2023-05-13T01:15:25;5.60;;;5.10;;
54899;SDS011;40801;41.924;25.562;2023-05-13T01:17:54;5.32;;;4.72;;
54899;SDS011;40801;41.924;25.562;2023-05-13T01:20:42;5.72;;;4.82;;
54899;SDS011;40801;41.924;25.562;2023-05-13T01:23:11;5.32;;;5.03;;
54899;SDS011;40801;41.924;25.562;2023-05-13T01:25:37;4.93;;;4.63;;
54899;SDS011;40801;41.924;25.562;2023-05-13T01:28:04;5.13;;;4.75;;
54899;SDS011;40801;41.924;25.562;2023-05-13T01:30:30;4.50;;;4.20;;
54899;SDS011;40801;41.924;25.562;2023-05-13T01:32:55;5.20;;;4.80;;
54899;SDS011;40801;41.924;25.562;2023-05-13T01:35:22;5.72;;;5.32;;
54899;SDS011;40801;41.924;25.562;2023-05-13T01:37:48;5.63;;;4.95;;
54899;SDS011;40801;41.924;25.562;2023-05-13T01:40:14;5.18;;;4.88;;
54899;SDS011;40801;41.924;25.562;2023-05-13T01:42:41;5.28;;;4.80;;
54899;SDS011;40801;41.924;25.562;2023-05-13T01:45:07;5.63;;;5.10;;
54899;SDS011;40801;41.924;25.562;2023-05-13T01:47:32;8.63;;;5.15;;
54899;SDS011;40801;41.924;25.562;2023-05-13T01:49:58;8.82;;;5.30;;
54899;SDS011;40801;41.924;25.562;2023-05-13T01:52:23;6.07;;;5.68;;
54899;SDS011;40801;41.924;25.562;2023-05-13T01:54:49;6.28;;;5.68;;
54899;SDS011;40801;41.924;25.562;2023-05-13T01:57:14;6.13;;;5.63;;
54899;SDS011;40801;41.924;25.562;2023-05-13T01:59:39;6.55;;;5.85;;
54899;SDS011;40801;41.924;25.562;2023-05-13T02:02:05;6.78;;;5.40;;
54899;SDS011;40801;41.924;25.562;2023-05-13T02:04:31;6.60;;;5.93;;
54899;SDS011;40801;41.924;25.562;2023-05-13T02:06:56;5.35;;;4.82;;
54899;SDS011;40801;41.924;25.562;2023-05-13T02:09:21;5.88;;;5.28;;
54899;SDS011;40801;41.924;25.562;2023-05-13T02:11:47;5.53;;;5.13;;
54899;SDS011;40801;41.924;25.562;2023-05-13T02:14:12;5.85;;;5.45;;
54899;SDS011;40801;41.924;25.562;2023-05-13T02:16:38;5.80;;;5.40;;
54899;SDS011;40801;41.924;25.562;2023-05-13T02:19:03;6.00;;;5.55;;
54899;SDS011;40801;41.924;25.562;2023-05-13T02:21:29;5.63;;;5.30;;
54899;SDS011;40801;41.924;25.562;2023-05-13T02:23:54;5.90;;;5.40;;
54899;SDS011;40801;41.924;25.562;2023-05-13T02:26:20;5.88;;;5.47;;
54899;SDS011;40801;41.924;25.562;2023-05-13T02:28:46;5.30;;;4.90;;
54899;SDS011;40801;41.924;25.562;2023-05-13T02:31:11;5.40;;;5.10;;
54899;SDS011;40801;41.924;25.562;2023-05-13T02:33:37;6.20;;;5.75;;
54899;SDS011;40801;41.924;25.562;2023-05-13T02:36:02;5.57;;;4.95;;
54899;SDS011;40801;41.924;25.562;2023-05-13T02:38:28;6.03;;;5.57;;
54899;SDS011;40801;41.924;25.562;2023-05-13T02:40:53;7.22;;;5.30;;
54899;SDS011;40801;41.924;25.562;2023-05-13T02:43:18;6.25;;;5.75;;
54899;SDS011;40801;41.924;25.562;2023-05-13T02:45:44;6.13;;;5.63;;
54899;SDS011;40801;41.924;25.562;2023-05-13T02:48:10;5.28;;;4.97;;
54899;SDS011;40801;41.924;25.562;2023-05-13T02:50:35;6.18;;;5.68;;
54899;SDS011;40801;41.924;25.562;2023-05-13T02:53:01;6.93;;;6.35;;
54899;SDS011;40801;41.924;25.562;2023-05-13T02:55:26;5.45;;;5.07;;
54899;SDS011;40801;41.924;25.562;2023-05-13T02:57:52;8.05;;;6.38;;
54899;SDS011;40801;41.924;25.562;2023-05-13T03:00:17;7.15;;;5.40;;
54899;SDS011;40801;41.924;25.562;2023-05-13T03:02:43;5.65;;;5.25;;
54899;SDS011;40801;41.924;25.562;2023-05-13T03:05:08;5.57;;;5.18;;
54899;SDS011;40801;41.924;25.562;2023-05-13T03:07:34;8.98;;;5.90;;
54899;SDS011;40801;41.924;25.562;2023-05-13T03:09:59;6.35;;;5.93;;
54899;SDS011;40801;41.924;25.562;2023-05-13T03:12:25;6.05;;;5.20;;
54899;SDS011;40801;41.924;25.562;2023-05-13T03:14:50;6.68;;;6.18;;
54899;SDS011;40801;41.924;25.562;2023-05-13T03:17:16;5.90;;;5.40;;
54899;SDS011;40801;41.924;25.562;2023-05-13T03:19:41;6.03;;;5.55;;
54899;SDS011;40801;41.924;25.562;2023-05-13T03:22:06;6.50;;;6.10;;
54899;SDS011;40801;41.924;25.562;2023-05-13T03:24:32;6.32;;;5.82;;
54899;SDS011;40801;41.924;25.562;2023-05-13T03:26:57;6.10;;;5.60;;
54899;SDS011;40801;41.924;25.562;2023-05-13T03:29:23;6.20;;;5.57;;
54899;SDS011;40801;41.924;25.562;2023-05-13T03:31:49;6.97;;;5.85;;
54899;SDS011;40801;41.924;25.562;2023-05-13T03:34:15;6.22;;;5.82;;
54899;SDS011;40801;41.924;25.562;2023-05-13T03:36:40;6.30;;;5.70;;
54899;SDS011;40801;41.924;25.562;2023-05-13T03:39:06;5.75;;;5.22;;
54899;SDS011;40801;41.924;25.562;2023-05-13T03:41:31;6.60;;;5.97;;
54899;SDS011;40801;41.924;25.562;2023-05-13T03:43:57;6.25;;;5.72;;
54899;SDS011;40801;41.924;25.562;2023-05-13T03:46:22;6.93;;;6.32;;
54899;SDS011;40801;41.924;25.562;2023-05-13T03:48:48;6.63;;;6.10;;
54899;SDS011;40801;41.924;25.562;2023-05-13T03:51:13;8.40;;;7.53;;
54899;SDS011;40801;41.924;25.562;2023-05-13T03:53:39;7.13;;;6.43;;
54899;SDS011;40801;41.924;25.562;2023-05-13T03:56:05;9.82;;;6.85;;
54899;SDS011;40801;41.924;25.562;2023-05-13T03:58:30;6.47;;;5.97;;
54899;SDS011;40801;41.924;25.562;2023-05-13T04:00:55;7.10;;;6.40;;
54899;SDS011;40801;41.924;25.562;2023-05-13T04:03:21;6.88;;;6.22;;
54899;SDS011;40801;41.924;25.562;2023-05-13T04:05:47;7.00;;;6.40;;
54899;SDS011;40801;41.924;25.562;2023-05-13T04:08:13;7.13;;;6.30;;
54899;SDS011;40801;41.924;25.562;2023-05-13T04:10:39;7.25;;;6.65;;
54899;SDS011;40801;41.924;25.562;2023-05-13T04:13:04;12.30;;;8.77;;
54899;SDS011;40801;41.924;25.562;2023-05-13T04:15:31;8.35;;;6.53;;
54899;SDS011;40801;41.924;25.562;2023-05-13T04:17:57;7.53;;;6.85;;
54899;SDS011;40801;41.924;25.562;2023-05-13T04:20:23;7.85;;;7.15;;
54899;SDS011;40801;41.924;25.562;2023-05-13T04:22:48;8.95;;;8.02;;
54899;SDS011;40801;41.924;25.562;2023-05-13T04:25:14;8.90;;;7.90;;
54899;SDS011;40801;41.924;25.562;2023-05-13T04:27:39;6.90;;;6.40;;
54899;SDS011;40801;41.924;25.562;2023-05-13T04:30:06;9.38;;;7.57;;
54899;SDS011;40801;41.924;25.562;2023-05-13T04:32:32;8.52;;;7.55;;
54899;SDS011;40801;41.924;25.562;2023-05-13T04:34:58;19.52;;;14.63;;
54899;SDS011;40801;41.924;25.562;2023-05-13T04:37:23;9.40;;;8.05;;
54899;SDS011;40801;41.924;25.562;2023-05-13T04:39:49;10.55;;;7.35;;
54899;SDS011;40801;41.924;25.562;2023-05-13T04:42:14;9.85;;;8.00;;
54899;SDS011;40801;41.924;25.562;2023-05-13T04:44:40;11.93;;;8.95;;
54899;SDS011;40801;41.924;25.562;2023-05-13T04:47:06;11.20;;;8.40;;
54899;SDS011;40801;41.924;25.562;2023-05-13T04:49:31;10.60;;;8.93;;
54899;SDS011;40801;41.924;25.562;2023-05-13T04:51:57;9.48;;;8.57;;
54899;SDS011;40801;41.924;25.562;2023-05-13T04:54:22;10.98;;;9.88;;
54899;SDS011;40801;41.924;25.562;2023-05-13T04:56:48;10.75;;;9.75;;
54899;SDS011;40801;41.924;25.562;2023-05-13T04:59:13;10.18;;;9.25;;
54899;SDS011;40801;41.924;25.562;2023-05-13T05:01:39;10.13;;;8.90;;
54899;SDS011;40801;41.924;25.562;2023-05-13T05:04:05;11.25;;;9.38;;
54899;SDS011;40801;41.924;25.562;2023-05-13T05:06:30;9.10;;;8.30;;
54899;SDS011;40801;41.924;25.562;2023-05-13T05:08:56;9.57;;;8.68;;
54899;SDS011;40801;41.924;25.562;2023-05-13T05:11:23;9.80;;;8.85;;
54899;SDS011;40801;41.924;25.562;2023-05-13T05:13:48;9.82;;;8.88;;
54899;SDS011;40801;41.924;25.562;2023-05-13T05:16:14;10.35;;;8.25;;
54899;SDS011;40801;41.924;25.562;2023-05-13T05:18:39;10.73;;;9.65;;
54899;SDS011;40801;41.924;25.562;2023-05-13T05:21:07;12.10;;;9.02;;
54899;SDS011;40801;41.924;25.562;2023-05-13T05:23:33;9.88;;;8.90;;
54899;SDS011;40801;41.924;25.562;2023-05-13T05:25:58;12.65;;;9.00;;
54899;SDS011;40801;41.924;25.562;2023-05-13T05:28:24;15.55;;;13.95;;
54899;SDS011;40801;41.924;25.562;2023-05-13T05:30:50;13.15;;;10.15;;
54899;SDS011;40801;41.924;25.562;2023-05-13T05:33:16;12.50;;;11.23;;
54899;SDS011;40801;41.924;25.562;2023-05-13T05:35:43;12.18;;;9.65;;
54899;SDS011;40801;41.924;25.562;2023-05-13T05:38:09;9.63;;;8.63;;
54899;SDS011;40801;41.924;25.562;2023-05-13T05:40:37;10.25;;;9.15;;
54899;SDS011;40801;41.924;25.562;2023-05-13T05:43:04;10.75;;;9.75;;
54899;SDS011;40801;41.924;25.562;2023-05-13T05:45:31;10.68;;;9.13;;
54899;SDS011;40801;41.924;25.562;2023-05-13T05:47:56;9.15;;;8.27;;
54899;SDS011;40801;41.924;25.562;2023-05-13T05:50:21;9.07;;;8.10;;
54899;SDS011;40801;41.924;25.562;2023-05-13T05:52:47;10.27;;;9.25;;
54899;SDS011;40801;41.924;25.562;2023-05-13T05:55:13;10.32;;;9.20;;
54899;SDS011;40801;41.924;25.562;2023-05-13T05:57:39;9.70;;;8.82;;
54899;SDS011;40801;41.924;25.562;2023-05-13T06:00:05;10.63;;;9.75;;
54899;SDS011;40801;41.924;25.562;2023-05-13T06:02:31;13.45;;;9.75;;
54899;SDS011;40801;41.924;25.562;2023-05-13T06:04:56;13.48;;;11.90;;
54899;SDS011;40801;41.924;25.562;2023-05-13T06:07:22;10.73;;;9.73;;
54899;SDS011;40801;41.924;25.562;2023-05-13T06:09:47;14.38;;;10.65;;
54899;SDS011;40801;41.924;25.562;2023-05-13T06:12:12;10.93;;;9.85;;
54899;SDS011;40801;41.924;25.562;2023-05-13T06:14:38;11.20;;;10.02;;
54899;SDS011;40801;41.924;25.562;2023-05-13T06:17:03;11.02;;;9.77;;
54899;SDS011;40801;41.924;25.562;2023-05-13T06:19:29;10.85;;;9.75;;
54899;SDS011;40801;41.924;25.562;2023-05-13T06:21:54;12.27;;;10.98;;
54899;SDS011;40801;41.924;25.562;2023-05-13T06:24:20;12.73;;;11.25;;
54899;SDS011;40801;41.924;25.562;2023-05-13T06:26:46;11.95;;;10.65;;
54899;SDS011;40801;41.924;25.562;2023-05-13T06:29:11;10.88;;;9.90;;
54899;SDS011;40801;41.924;25.562;2023-05-13T06:31:37;11.88;;;10.40;;
54899;SDS011;40801;41.924;25.562;2023-05-13T06:34:02;11.27;;;10.10;;
54899;SDS011;40801;41.924;25.562;2023-05-13T06:36:28;12.20;;;11.00;;
54899;SDS011;40801;41.924;25.562;2023-05-13T06:38:53;11.93;;;10.65;;
54899;SDS011;40801;41.924;25.562;2023-05-13T06:41:19;11.48;;;10.27;;
54899;SDS011;40801;41.924;25.562;2023-05-13T06:43:44;11.82;;;10.57;;
54899;SDS011;40801;41.924;25.562;2023-05-13T06:46:10;12.05;;;10.02;;
54899;SDS011;40801;41.924;25.562;2023-05-13T06:48:36;13.10;;;11.27;;
54899;SDS011;40801;41.924;25.562;2023-05-13T06:51:02;14.07;;;10.57;;
54899;SDS011;40801;41.924;25.562;2023-05-13T06:53:29;12.57;;;9.27;;
54899;SDS011;40801;41.924;25.562;2023-05-13T06:55:55;13.32;;;9.27;;
54899;SDS011;40801;41.924;25.562;2023-05-13T06:58:21;8.75;;;7.85;;
54899;SDS011;40801;41.924;25.562;2023-05-13T07:00:46;9.93;;;7.70;;
54899;SDS011;40801;41.924;25.562;2023-05-13T07:03:12;8.43;;;7.53;;
54899;SDS011;40801;41.924;25.562;2023-05-13T07:05:37;12.07;;;7.38;;
54899;SDS011;40801;41.924;25.562;2023-05-13T07:08:03;11.10;;;8.52;;
54899;SDS011;40801;41.924;25.562;2023-05-13T07:10:32;10.70;;;7.40;;
54899;SDS011;40801;41.924;25.562;2023-05-13T07:12:58;9.80;;;8.23;;
54899;SDS011;40801;41.924;25.562;2023-05-13T07:15:27;11.23;;;7.75;;
54899;SDS011;40801;41.924;25.562;2023-05-13T07:17:52;11.95;;;8.30;;
54899;SDS011;40801;41.924;25.562;2023-05-13T07:20:18;11.93;;;9.00;;
54899;SDS011;40801;41.924;25.562;2023-05-13T07:22:46;11.18;;;8.30;;
54899;SDS011;40801;41.924;25.562;2023-05-13T07:25:13;10.95;;;8.20;;
54899;SDS011;40801;41.924;25.562;2023-05-13T07:27:38;12.70;;;9.43;;
54899;SDS011;40801;41.924;25.562;2023-05-13T07:30:03;7.88;;;7.07;;
54899;SDS011;40801;41.924;25.562;2023-05-13T07:32:30;11.52;;;7.47;;
54899;SDS011;40801;41.924;25.562;2023-05-13T07:34:55;7.88;;;6.57;;
54899;SDS011;40801;41.924;25.562;2023-05-13T07:37:22;8.82;;;6.07;;
54899;SDS011;40801;41.924;25.562;2023-05-13T07:39:48;12.57;;;6.53;;
54899;SDS011;40801;41.924;25.562;2023-05-13T07:42:13;7.22;;;6.30;;
54899;SDS011;40801;41.924;25.562;2023-05-13T07:44:39;5.60;;;5.10;;
54899;SDS011;40801;41.924;25.562;2023-05-13T07:47:05;8.35;;;5.47;;
54899;SDS011;40801;41.924;25.562;2023-05-13T07:49:30;6.22;;;4.68;;
54899;SDS011;40801;41.924;25.562;2023-05-13T07:51:56;8.40;;;5.68;;
54899;SDS011;40801;41.924;25.562;2023-05-13T07:54:21;5.63;;;5.03;;
54899;SDS011;40801;41.924;25.562;2023-05-13T07:56:47;8.18;;;5.85;;
